createdAt,value
2017-07-29T00:01:19.733Z,5.87
2017-07-29T00:03:45.820Z,5.70
2017-07-29T00:06:12.699Z,6.20
2017-07-29T00:08:39.550Z,5.30
2017-07-29T00:11:05.982Z,5.53
2017-07-29T00:13:32.819Z,6.00
2017-07-29T00:15:59.853Z,5.90
2017-07-29T00:18:26.268Z,6.17
2017-07-29T00:20:53.149Z,5.93
2017-07-29T00:23:21.008Z,6.60
2017-07-29T00:25:48.260Z,5.83
2017-07-29T00:28:14.297Z,6.30
2017-07-29T00:30:40.450Z,6.13
2017-07-29T00:33:07.662Z,6.40
2017-07-29T00:35:34.661Z,6.23
2017-07-29T00:38:00.705Z,5.40
2017-07-29T00:40:26.888Z,6.20
2017-07-29T00:42:53.979Z,5.70
2017-07-29T00:45:20.680Z,5.77
2017-07-29T00:47:46.989Z,5.93
2017-07-29T00:50:13.103Z,5.50
2017-07-29T00:52:39.743Z,6.60
2017-07-29T00:55:05.785Z,6.30
2017-07-29T00:57:33.192Z,5.57
2017-07-29T00:59:59.274Z,6.03
2017-07-29T01:02:25.464Z,5.53
2017-07-29T01:04:55.162Z,5.83
2017-07-29T01:07:21.417Z,6.10
2017-07-29T01:09:47.564Z,6.07
2017-07-29T01:12:14.269Z,6.37
2017-07-29T01:14:41.205Z,6.27
2017-07-29T01:17:08.145Z,7.00
2017-07-29T01:19:34.255Z,6.00
2017-07-29T01:22:01.366Z,7.40
2017-07-29T01:24:27.453Z,5.43
2017-07-29T01:26:53.695Z,6.83
2017-07-29T01:29:20.288Z,5.90
2017-07-29T01:31:46.535Z,5.73
2017-07-29T01:34:12.828Z,6.87
2017-07-29T01:36:41.746Z,6.37
2017-07-29T01:39:08.155Z,6.13
2017-07-29T01:41:34.301Z,6.00
2017-07-29T01:44:01.157Z,5.70
2017-07-29T01:46:27.305Z,5.83
2017-07-29T01:48:53.671Z,5.97
2017-07-29T01:51:19.845Z,5.93
2017-07-29T01:53:45.909Z,6.40
2017-07-29T01:56:12.156Z,5.53
2017-07-29T01:58:38.341Z,6.00
2017-07-29T02:01:04.656Z,6.10
2017-07-29T02:03:31.010Z,6.03
2017-07-29T02:05:57.164Z,6.20
2017-07-29T02:08:23.457Z,6.80
2017-07-29T02:10:49.559Z,6.17
2017-07-29T02:13:17.889Z,6.40
2017-07-29T02:15:44.572Z,6.37
2017-07-29T02:18:10.882Z,6.60
2017-07-29T02:20:37.223Z,6.23
2017-07-29T02:23:03.414Z,6.03
2017-07-29T02:25:29.571Z,5.80
2017-07-29T02:27:56.318Z,7.47
2017-07-29T02:30:23.766Z,6.63
2017-07-29T02:32:50.608Z,6.03
2017-07-29T02:35:16.800Z,5.87
2017-07-29T02:37:42.971Z,6.00
2017-07-29T02:40:09.421Z,5.20
2017-07-29T02:42:35.589Z,5.90
2017-07-29T02:45:01.824Z,6.03
2017-07-29T02:47:28.202Z,5.87
2017-07-29T02:49:54.497Z,5.70
2017-07-29T02:52:20.642Z,6.20
2017-07-29T02:54:46.722Z,6.60
2017-07-29T02:57:17.159Z,6.77
2017-07-29T02:59:43.288Z,5.97
2017-07-29T03:02:09.472Z,6.77
2017-07-29T03:04:35.625Z,5.90
2017-07-29T03:07:01.792Z,6.67
2017-07-29T03:09:28.004Z,6.60
2017-07-29T03:11:55.023Z,7.03
2017-07-29T03:14:22.261Z,7.03
2017-07-29T03:16:49.241Z,6.40
2017-07-29T03:19:15.388Z,6.60
2017-07-29T03:21:41.512Z,6.07
2017-07-29T03:24:07.639Z,6.50
2017-07-29T03:26:34.553Z,6.30
2017-07-29T03:29:01.742Z,7.00
2017-07-29T03:31:28.779Z,7.70
2017-07-29T03:33:55.047Z,6.30
2017-07-29T03:36:22.873Z,7.30
2017-07-29T03:38:49.380Z,6.40
2017-07-29T03:41:15.516Z,6.83
2017-07-29T03:43:41.652Z,7.93
2017-07-29T03:46:07.933Z,7.80
2017-07-29T03:48:34.344Z,6.73
2017-07-29T03:51:00.619Z,7.17
2017-07-29T03:53:26.885Z,8.23
2017-07-29T03:55:53.063Z,6.80
2017-07-29T03:58:20.116Z,6.40
2017-07-29T04:00:46.980Z,6.83
2017-07-29T04:03:13.300Z,6.60
2017-07-29T04:05:40.141Z,6.33
2017-07-29T04:08:06.252Z,6.50
2017-07-29T04:10:32.534Z,5.97
2017-07-29T04:12:59.671Z,6.80
2017-07-29T04:15:27.017Z,7.20
2017-07-29T04:17:53.252Z,7.80
2017-07-29T04:20:19.433Z,8.10
2017-07-29T04:22:45.538Z,8.23
2017-07-29T04:25:11.545Z,7.43
2017-07-29T04:27:38.635Z,7.73
2017-07-29T04:30:05.569Z,9.10
2017-07-29T04:32:32.031Z,7.87
2017-07-29T04:34:58.909Z,7.60
2017-07-29T04:37:25.099Z,7.23
2017-07-29T04:39:52.093Z,7.60
2017-07-29T04:42:18.179Z,7.40
2017-07-29T04:44:44.297Z,7.63
2017-07-29T04:47:10.525Z,6.70
2017-07-29T04:49:36.600Z,6.53
2017-07-29T04:52:03.839Z,7.23
2017-07-29T04:54:30.878Z,7.10
2017-07-29T04:56:57.531Z,8.10
2017-07-29T04:59:23.719Z,7.47
2017-07-29T05:01:50.146Z,8.30
2017-07-29T05:04:16.255Z,7.90
2017-07-29T05:06:42.388Z,7.43
2017-07-29T05:09:09.439Z,7.50
2017-07-29T05:11:36.226Z,8.60
2017-07-29T05:14:02.724Z,7.20
2017-07-29T05:16:28.939Z,8.40
2017-07-29T05:18:55.936Z,8.37
2017-07-29T05:21:22.039Z,8.40
2017-07-29T05:23:49.087Z,8.40
2017-07-29T05:26:15.980Z,7.80
2017-07-29T05:28:42.153Z,9.00
2017-07-29T05:31:08.366Z,7.90
2017-07-29T05:33:34.917Z,8.37
2017-07-29T05:36:00.969Z,8.43
2017-07-29T05:38:27.058Z,8.37
2017-07-29T05:40:53.065Z,8.37
2017-07-29T05:43:19.096Z,7.60
2017-07-29T05:45:46.266Z,8.10
2017-07-29T05:48:12.395Z,8.57
2017-07-29T05:50:38.508Z,7.60
2017-07-29T05:53:04.883Z,8.40
2017-07-29T05:55:30.968Z,8.43
2017-07-29T05:57:57.071Z,8.13
2017-07-29T06:00:23.231Z,7.77
2017-07-29T06:02:49.528Z,9.77
2017-07-29T06:05:15.644Z,8.70
2017-07-29T06:07:41.697Z,8.63
2017-07-29T06:10:08.573Z,8.40
2017-07-29T06:12:35.330Z,9.23
2017-07-29T06:15:01.309Z,8.40
2017-07-29T06:17:27.627Z,8.47
2017-07-29T06:19:53.917Z,7.40
2017-07-29T06:22:20.706Z,8.60
2017-07-29T06:24:46.724Z,8.80
2017-07-29T06:27:12.761Z,8.57
2017-07-29T06:29:38.881Z,8.37
2017-07-29T06:32:05.111Z,8.30
2017-07-29T06:34:31.231Z,8.00
2017-07-29T06:36:57.386Z,8.37
2017-07-29T06:39:23.611Z,8.00
2017-07-29T06:41:50.257Z,8.10
2017-07-29T06:44:16.259Z,7.43
2017-07-29T06:46:43.133Z,7.87
2017-07-29T06:49:09.361Z,7.93
2017-07-29T06:51:36.785Z,7.40
2017-07-29T06:54:03.023Z,7.70
2017-07-29T06:56:29.136Z,7.30
2017-07-29T06:58:55.206Z,6.80
2017-07-29T07:01:21.371Z,7.80
2017-07-29T07:03:47.560Z,7.53
2017-07-29T07:06:13.625Z,7.30
2017-07-29T07:08:39.649Z,8.37
2017-07-29T07:11:05.833Z,7.40
2017-07-29T07:13:31.915Z,7.27
2017-07-29T07:15:58.056Z,6.60
2017-07-29T07:18:25.067Z,7.47
2017-07-29T07:20:51.243Z,6.70
2017-07-29T07:23:17.595Z,7.17
2017-07-29T07:25:43.804Z,8.13
2017-07-29T07:28:09.941Z,6.97
2017-07-29T07:30:36.259Z,7.30
2017-07-29T07:33:06.174Z,6.70
2017-07-29T07:35:33.431Z,7.23
2017-07-29T07:37:59.596Z,6.80
2017-07-29T07:40:27.728Z,6.67
2017-07-29T07:42:53.958Z,6.60
2017-07-29T07:45:20.315Z,6.43
2017-07-29T07:47:46.933Z,6.57
2017-07-29T07:50:13.465Z,6.13
2017-07-29T07:52:39.702Z,6.40
2017-07-29T07:55:08.483Z,5.87
2017-07-29T07:57:35.662Z,6.07
2017-07-29T08:00:02.594Z,6.03
2017-07-29T08:02:29.491Z,6.17
2017-07-29T08:04:56.905Z,6.20
2017-07-29T08:07:24.157Z,5.50
2017-07-29T08:09:50.339Z,5.40
2017-07-29T08:12:18.261Z,5.50
2017-07-29T08:14:44.456Z,5.60
2017-07-29T08:17:12.887Z,5.17
2017-07-29T08:19:39.036Z,5.40
2017-07-29T08:22:05.156Z,5.90
2017-07-29T08:24:31.532Z,5.77
2017-07-29T08:26:58.626Z,4.60
2017-07-29T08:29:24.902Z,6.43
2017-07-29T08:31:50.997Z,5.43
2017-07-29T08:34:17.138Z,5.37
2017-07-29T08:36:44.063Z,5.17
2017-07-29T08:39:11.328Z,5.40
2017-07-29T08:41:38.414Z,5.70
2017-07-29T08:44:06.920Z,5.73
2017-07-29T08:46:34.132Z,5.80
2017-07-29T08:49:00.486Z,5.90
2017-07-29T08:51:26.795Z,5.73
2017-07-29T08:53:53.149Z,5.63
2017-07-29T08:56:20.161Z,6.27
2017-07-29T08:58:46.483Z,5.60
2017-07-29T09:01:13.828Z,5.33
2017-07-29T09:03:39.971Z,5.90
2017-07-29T09:06:06.201Z,6.00
2017-07-29T09:08:33.281Z,5.20
2017-07-29T09:11:01.907Z,6.40
2017-07-29T09:13:28.939Z,5.60
2017-07-29T09:15:55.617Z,6.13
2017-07-29T09:18:21.849Z,5.20
2017-07-29T09:20:47.908Z,6.80
2017-07-29T09:23:14.758Z,6.13
2017-07-29T09:25:40.724Z,5.50
2017-07-29T09:28:06.704Z,5.13
2017-07-29T09:30:33.407Z,7.20
2017-07-29T09:32:59.482Z,6.00
2017-07-29T09:35:26.429Z,5.13
2017-07-29T09:37:52.414Z,5.27
2017-07-29T09:40:18.412Z,5.70
2017-07-29T09:42:44.435Z,5.50
2017-07-29T09:45:10.397Z,5.80
2017-07-29T09:47:36.531Z,5.30
2017-07-29T09:50:03.358Z,5.80
2017-07-29T09:52:30.109Z,6.17
2017-07-29T09:54:56.100Z,5.63
2017-07-29T09:57:22.055Z,5.93
2017-07-29T09:59:48.891Z,4.87
2017-07-29T10:02:15.649Z,5.00
2017-07-29T10:04:41.592Z,5.30
2017-07-29T10:07:07.544Z,5.63
2017-07-29T10:09:33.499Z,5.07
2017-07-29T10:11:59.447Z,4.37
2017-07-29T10:14:25.368Z,4.63
2017-07-29T10:16:52.441Z,5.37
2017-07-29T10:19:22.221Z,4.50
2017-07-29T10:21:49.618Z,4.47
2017-07-29T10:24:16.472Z,4.67
2017-07-29T10:26:42.723Z,5.37
2017-07-29T10:29:09.252Z,5.53
2017-07-29T10:31:35.222Z,4.97
2017-07-29T10:34:01.181Z,5.07
2017-07-29T10:36:28.585Z,5.10
2017-07-29T10:38:54.637Z,4.27
2017-07-29T10:41:20.614Z,4.00
2017-07-29T10:43:46.572Z,4.10
2017-07-29T10:46:12.555Z,4.03
2017-07-29T10:48:38.514Z,3.70
2017-07-29T10:51:04.482Z,4.10
2017-07-29T10:53:30.500Z,4.00
2017-07-29T10:55:56.494Z,4.37
2017-07-29T10:58:22.499Z,3.73
2017-07-29T11:00:48.447Z,4.20
2017-07-29T11:03:14.400Z,3.37
2017-07-29T11:05:40.393Z,3.77
2017-07-29T11:08:06.381Z,4.00
2017-07-29T11:10:32.460Z,3.53
2017-07-29T11:12:58.520Z,3.47
2017-07-29T11:15:24.511Z,3.57
2017-07-29T11:17:50.479Z,3.70
2017-07-29T11:20:16.424Z,3.90
2017-07-29T11:22:42.464Z,3.57
2017-07-29T11:25:09.186Z,3.50
2017-07-29T11:27:35.260Z,3.20
2017-07-29T11:30:01.251Z,3.77
2017-07-29T11:32:27.260Z,3.87
2017-07-29T11:34:53.266Z,4.10
2017-07-29T11:37:19.246Z,3.67
2017-07-29T11:39:45.180Z,3.63
2017-07-29T11:42:11.119Z,3.53
2017-07-29T11:44:37.099Z,3.90
2017-07-29T11:47:03.088Z,4.00
2017-07-29T11:49:29.054Z,3.87
2017-07-29T11:51:55.055Z,3.50
2017-07-29T11:54:21.080Z,4.00
2017-07-29T11:56:47.035Z,4.27
2017-07-29T11:59:13.011Z,4.00
2017-07-29T12:01:38.971Z,3.97
2017-07-29T12:04:04.963Z,3.20
2017-07-29T12:06:30.929Z,3.70
2017-07-29T12:08:56.905Z,3.40
2017-07-29T12:11:22.964Z,3.50
2017-07-29T12:13:49.750Z,3.43
2017-07-29T12:16:15.755Z,3.20
2017-07-29T12:18:41.716Z,3.10
2017-07-29T12:21:08.688Z,3.70
2017-07-29T12:23:36.335Z,3.30
2017-07-29T12:26:02.395Z,3.40
2017-07-29T12:28:28.373Z,3.13
2017-07-29T12:30:54.385Z,3.37
2017-07-29T12:33:20.360Z,3.67
2017-07-29T12:35:46.382Z,3.00
2017-07-29T12:38:12.950Z,3.30
2017-07-29T12:40:38.924Z,3.40
2017-07-29T12:43:04.922Z,3.07
2017-07-29T12:45:30.899Z,3.33
2017-07-29T12:47:56.859Z,3.70
2017-07-29T12:50:22.862Z,2.90
2017-07-29T12:52:48.822Z,3.50
2017-07-29T12:55:14.756Z,3.80
2017-07-29T12:57:40.811Z,4.03
2017-07-29T13:00:06.773Z,3.57
2017-07-29T13:02:32.775Z,3.47
2017-07-29T13:04:58.733Z,3.37
2017-07-29T13:07:24.735Z,3.20
2017-07-29T13:09:50.680Z,2.83
2017-07-29T13:12:16.707Z,3.33
2017-07-29T13:14:42.649Z,3.23
2017-07-29T13:17:09.338Z,3.20
2017-07-29T13:19:35.289Z,3.57
2017-07-29T13:22:01.400Z,3.50
2017-07-29T13:24:27.350Z,3.43
2017-07-29T13:26:53.368Z,4.03
2017-07-29T13:29:19.396Z,3.20
2017-07-29T13:31:45.373Z,3.53
2017-07-29T13:34:11.500Z,3.33
2017-07-29T13:36:37.509Z,3.40
2017-07-29T13:39:03.481Z,3.70
2017-07-29T13:41:30.588Z,4.47
2017-07-29T13:43:56.718Z,3.47
2017-07-29T13:46:22.934Z,3.40
2017-07-29T13:48:48.994Z,3.20
2017-07-29T13:51:15.849Z,2.90
2017-07-29T13:53:42.544Z,3.20
2017-07-29T13:56:08.573Z,3.57
2017-07-29T13:58:35.408Z,3.03
2017-07-29T14:01:01.443Z,2.87
2017-07-29T14:03:29.568Z,3.47
2017-07-29T14:05:55.510Z,3.87
2017-07-29T14:08:21.498Z,3.10
2017-07-29T14:10:47.502Z,2.60
2017-07-29T14:13:13.444Z,3.30
2017-07-29T14:15:39.367Z,3.00
2017-07-29T14:18:05.327Z,3.10
2017-07-29T14:20:31.296Z,2.50
2017-07-29T14:22:57.294Z,2.87
2017-07-29T14:25:23.251Z,2.87
2017-07-29T14:27:49.248Z,3.00
2017-07-29T14:30:15.212Z,3.07
2017-07-29T14:32:42.704Z,3.10
2017-07-29T14:35:08.676Z,2.53
2017-07-29T14:37:34.669Z,3.07
2017-07-29T14:40:00.666Z,2.70
2017-07-29T14:42:26.631Z,2.87
2017-07-29T14:44:52.663Z,2.70
2017-07-29T14:47:18.664Z,3.47
2017-07-29T14:49:44.648Z,2.53
2017-07-29T14:52:10.674Z,2.50
2017-07-29T14:54:38.347Z,3.73
2017-07-29T14:57:04.341Z,2.93
2017-07-29T14:59:31.053Z,3.00
2017-07-29T15:01:57.068Z,2.77
2017-07-29T15:04:23.087Z,3.00
2017-07-29T15:06:49.051Z,2.53
2017-07-29T15:09:15.171Z,3.33
2017-07-29T15:11:41.161Z,2.90
2017-07-29T15:14:07.152Z,3.30
2017-07-29T15:16:33.107Z,3.17
2017-07-29T15:18:59.052Z,3.13
2017-07-29T15:21:25.191Z,2.77
2017-07-29T15:23:51.177Z,2.80
2017-07-29T15:26:17.148Z,3.07
2017-07-29T15:28:43.322Z,2.90
2017-07-29T15:31:09.299Z,3.00
2017-07-29T15:33:35.231Z,3.40
2017-07-29T15:36:01.615Z,3.20
2017-07-29T15:38:28.056Z,3.43
2017-07-29T15:40:55.640Z,2.77
2017-07-29T15:43:21.618Z,2.73
2017-07-29T15:45:47.888Z,3.00
2017-07-29T15:48:13.839Z,2.73
2017-07-29T15:50:39.855Z,2.80
2017-07-29T15:53:05.889Z,3.50
2017-07-29T15:55:31.886Z,2.43
2017-07-29T15:57:58.050Z,3.10
2017-07-29T16:00:24.026Z,3.00
2017-07-29T16:02:49.993Z,2.60
2017-07-29T16:05:15.988Z,3.00
2017-07-29T16:07:42.023Z,3.23
2017-07-29T16:10:07.975Z,3.13
2017-07-29T16:12:33.943Z,2.60
2017-07-29T16:14:59.876Z,3.17
2017-07-29T16:17:26.698Z,2.87
2017-07-29T16:19:52.929Z,3.07
2017-07-29T16:22:18.964Z,3.90
2017-07-29T16:24:44.966Z,3.23
2017-07-29T16:27:11.019Z,3.13
2017-07-29T16:29:37.052Z,3.63
2017-07-29T16:32:03.159Z,3.87
2017-07-29T16:34:30.011Z,3.20
2017-07-29T16:36:56.024Z,3.60
2017-07-29T16:39:22.081Z,4.43
2017-07-29T16:41:48.044Z,3.67
2017-07-29T16:44:14.014Z,3.20
2017-07-29T16:46:40.005Z,3.60
2017-07-29T16:49:05.984Z,3.37
2017-07-29T16:51:32.061Z,3.20
2017-07-29T16:53:58.020Z,3.30
2017-07-29T16:56:24.707Z,4.30
2017-07-29T16:58:50.673Z,3.67
2017-07-29T17:01:16.664Z,3.90
2017-07-29T17:03:42.722Z,3.57
2017-07-29T17:06:08.757Z,3.50
2017-07-29T17:08:34.802Z,3.33
2017-07-29T17:11:00.862Z,3.50
2017-07-29T17:13:26.880Z,4.10
2017-07-29T17:15:52.928Z,3.60
2017-07-29T17:18:19.593Z,3.40
2017-07-29T17:20:45.640Z,3.20
2017-07-29T17:23:11.643Z,2.97
2017-07-29T17:25:37.732Z,3.60
2017-07-29T17:28:03.980Z,3.23
2017-07-29T17:30:30.004Z,2.97
2017-07-29T17:32:56.038Z,2.80
2017-07-29T17:35:22.054Z,3.50
2017-07-29T17:37:48.759Z,3.30
2017-07-29T17:40:14.728Z,3.10
2017-07-29T17:42:40.690Z,3.00
2017-07-29T17:45:06.737Z,3.37
2017-07-29T17:47:32.706Z,3.50
2017-07-29T17:49:58.701Z,3.70
2017-07-29T17:52:24.723Z,3.53
2017-07-29T17:54:50.647Z,3.83
2017-07-29T17:57:17.340Z,4.40
2017-07-29T17:59:43.377Z,3.40
2017-07-29T18:02:09.374Z,4.00
2017-07-29T18:04:36.161Z,3.67
2017-07-29T18:07:02.890Z,4.03
2017-07-29T18:09:28.967Z,5.17
2017-07-29T18:11:54.959Z,3.50
2017-07-29T18:14:20.959Z,4.23
2017-07-29T18:16:46.941Z,4.00
2017-07-29T18:19:12.961Z,4.33
2017-07-29T18:21:38.920Z,3.90
2017-07-29T18:24:04.971Z,3.60
2017-07-29T18:26:30.993Z,3.97
2017-07-29T18:28:57.058Z,3.67
2017-07-29T18:31:23.090Z,3.90
2017-07-29T18:33:49.064Z,4.00
2017-07-29T18:36:15.110Z,4.00
2017-07-29T18:38:41.161Z,3.70
2017-07-29T18:41:07.667Z,3.70
2017-07-29T18:43:33.693Z,3.50
2017-07-29T18:46:00.635Z,3.60
2017-07-29T18:48:27.401Z,3.90
2017-07-29T18:50:53.431Z,3.53
2017-07-29T18:53:20.167Z,4.73
2017-07-29T18:55:46.174Z,4.30
2017-07-29T18:58:12.183Z,4.20
2017-07-29T19:00:38.190Z,4.67
2017-07-29T19:03:04.284Z,3.70
2017-07-29T19:05:30.337Z,4.30
2017-07-29T19:07:56.350Z,3.93
2017-07-29T19:10:22.354Z,4.10
2017-07-29T19:12:48.325Z,4.60
2017-07-29T19:15:15.191Z,7.30
2017-07-29T19:17:41.208Z,4.60
2017-07-29T19:20:07.167Z,4.70
2017-07-29T19:22:33.135Z,5.50
2017-07-29T19:25:00.075Z,6.73
2017-07-29T19:27:26.101Z,5.67
2017-07-29T19:29:52.128Z,6.83
2017-07-29T19:32:18.316Z,6.27
2017-07-29T19:34:45.007Z,7.07
2017-07-29T19:37:10.960Z,5.87
2017-07-29T19:39:38.414Z,7.90
2017-07-29T19:42:05.488Z,6.57
2017-07-29T19:44:31.496Z,6.20
2017-07-29T19:46:57.407Z,6.73
2017-07-29T19:49:24.091Z,6.20
2017-07-29T19:51:50.035Z,7.30
2017-07-29T19:54:16.032Z,7.37
2017-07-29T19:56:41.974Z,7.60
2017-07-29T19:59:07.943Z,6.20
2017-07-29T20:01:34.672Z,6.23
2017-07-29T20:04:00.593Z,10.63
2017-07-29T20:06:26.602Z,5.83
2017-07-29T20:08:53.563Z,6.77
2017-07-29T20:11:19.579Z,5.80
2017-07-29T20:13:45.698Z,7.40
2017-07-29T20:16:11.685Z,5.60
2017-07-29T20:18:37.648Z,5.60
2017-07-29T20:21:03.813Z,6.00
2017-07-29T20:23:29.895Z,5.30
2017-07-29T20:25:56.613Z,5.40
2017-07-29T20:28:22.599Z,6.47
2017-07-29T20:30:48.561Z,6.50
2017-07-29T20:33:14.611Z,5.43
2017-07-29T20:35:41.599Z,5.93
2017-07-29T20:38:07.566Z,6.43
2017-07-29T20:40:34.266Z,6.63
2017-07-29T20:43:00.211Z,6.03
2017-07-29T20:45:26.148Z,5.30
2017-07-29T20:47:52.091Z,6.00
2017-07-29T20:50:18.037Z,5.63
2017-07-29T20:52:44.011Z,5.77
2017-07-29T20:55:09.959Z,6.40
2017-07-29T20:57:35.935Z,5.83
2017-07-29T21:00:03.061Z,6.23
2017-07-29T21:02:29.011Z,7.60
2017-07-29T21:04:54.961Z,6.80
2017-07-29T21:07:20.973Z,6.57
2017-07-29T21:09:47.938Z,7.60
2017-07-29T21:12:13.874Z,6.20
2017-07-29T21:14:39.816Z,7.00
2017-07-29T21:17:05.769Z,5.30
2017-07-29T21:19:31.708Z,5.70
2017-07-29T21:21:57.627Z,5.90
2017-07-29T21:24:24.383Z,6.50
2017-07-29T21:26:50.439Z,6.07
2017-07-29T21:29:16.446Z,7.00
2017-07-29T21:31:46.295Z,5.43
2017-07-29T21:34:12.257Z,6.20
2017-07-29T21:36:38.232Z,6.07
2017-07-29T21:39:04.260Z,6.63
2017-07-29T21:41:30.249Z,7.30
2017-07-29T21:43:56.219Z,7.87
2017-07-29T21:46:23.046Z,6.30
2017-07-29T21:48:49.036Z,7.20
2017-07-29T21:51:15.090Z,7.40
2017-07-29T21:53:41.291Z,7.40
2017-07-29T21:56:07.360Z,7.40
2017-07-29T21:58:33.380Z,8.00
2017-07-29T22:01:00.295Z,7.50
2017-07-29T22:03:26.248Z,8.03
2017-07-29T22:05:52.256Z,7.20
2017-07-29T22:08:18.222Z,7.47
2017-07-29T22:10:44.221Z,7.47
2017-07-29T22:13:10.211Z,11.33
2017-07-29T22:15:36.153Z,7.33
2017-07-29T22:18:03.151Z,7.37
2017-07-29T22:20:29.216Z,7.50
2017-07-29T22:22:55.231Z,7.03
2017-07-29T22:25:21.243Z,8.40
2017-07-29T22:27:47.409Z,8.03
2017-07-29T22:30:13.401Z,8.70
2017-07-29T22:32:40.131Z,9.33
2017-07-29T22:35:07.468Z,8.30
2017-07-29T22:37:33.484Z,8.37
2017-07-29T22:39:59.454Z,9.20
2017-07-29T22:42:25.451Z,8.73
2017-07-29T22:44:51.397Z,8.70
2017-07-29T22:47:18.119Z,9.00
2017-07-29T22:49:44.799Z,9.10
2017-07-29T22:52:10.809Z,9.97
2017-07-29T22:54:36.823Z,9.30
2017-07-29T22:57:03.054Z,8.73
2017-07-29T22:59:29.044Z,9.63
2017-07-29T23:01:54.997Z,8.50
2017-07-29T23:04:20.971Z,8.50
2017-07-29T23:06:46.939Z,9.20
2017-07-29T23:09:13.048Z,7.70
2017-07-29T23:11:39.782Z,8.20
2017-07-29T23:14:05.785Z,8.43
2017-07-29T23:16:31.828Z,8.87
2017-07-29T23:18:57.770Z,8.70
2017-07-29T23:21:23.704Z,9.00
2017-07-29T23:23:49.638Z,9.40
2017-07-29T23:26:15.567Z,8.50
2017-07-29T23:28:41.551Z,8.60
2017-07-29T23:31:07.551Z,10.90
2017-07-29T23:33:35.152Z,8.97
2017-07-29T23:36:01.092Z,8.83
2017-07-29T23:38:27.070Z,8.50
2017-07-29T23:40:53.138Z,7.70
2017-07-29T23:43:19.212Z,9.00
2017-07-29T23:45:46.090Z,8.33
2017-07-29T23:48:12.085Z,8.87
2017-07-29T23:50:38.044Z,8.27
2017-07-29T23:53:04.099Z,9.30
2017-07-29T23:55:30.078Z,9.83
2017-07-29T23:57:56.037Z,9.40
